Campos Belos, Brazil
Current Conditions -  °F | °C
As of 10:00 AM on Friday 21 Nov 2014 (Local Time) from SBBR Reporting Station
Few Clouds Few Clouds  
Wind Chill: 79°   Ceiling: Unl
Heat Index: 80°   Visibility: 6mi
Dew Point: 63°   Wind: 12mph
Humidity: 57%   Direction: 90°E
Pressure: 30.12"   Gusts: NA
Location:  13.04°S, 46.77°W
Report Text: SBBR 211200Z 09010KT 9999 FEW020 26/17 Q1020
Loading
Personal Weather Stations






























Interactive Weather Map New forecast layout! Learn more

10-Day Weather Forecast

Advertisements
Track Severe Weather on mobile